Time;durP1;ratioP1;P1;durP2;ratioP2;P2;SDS_P1;SDS_P2;PMS_P1;PMS_P2;Temp;Humidity;BMP_temperature;BMP_pressure;BME280_temperature;BME280_humidity;BME280_pressure;Samples;Min_cycle;Max_cycle;Signal;HPM_P1;HPM_P2
2023/07/25 00:00:21;;;;;;;6.93;3.67;;;;;;;16.89;65.33;100597.00;5067312;28;20072;-72
2023/07/25 00:02:47;;;;;;;7.13;3.05;;;;;;;16.91;65.07;100600.34;5054415;28;20025;-72
2023/07/25 00:05:12;;;;;;;6.57;2.88;;;;;;;16.87;65.15;100604.06;5071423;28;20035;-72
2023/07/25 00:07:37;;;;;;;4.65;3.10;;;;;;;16.87;65.16;100604.88;5067445;28;20021;-72
2023/07/25 00:10:03;;;;;;;4.93;2.92;;;;;;;16.85;65.01;100606.31;5071886;28;20038;-72
2023/07/25 00:12:28;;;;;;;7.57;3.33;;;;;;;16.81;65.06;100594.88;5071898;28;20025;-72
2023/07/25 00:14:53;;;;;;;5.50;2.90;;;;;;;16.85;65.04;100593.13;5070526;28;20468;-72
2023/07/25 00:17:19;;;;;;;4.57;3.10;;;;;;;16.78;64.99;100592.69;5065679;28;20051;-72
2023/07/25 00:19:44;;;;;;;5.25;2.97;;;;;;;16.76;65.24;100594.09;5067436;28;20063;-72
2023/07/25 00:22:10;;;;;;;7.10;3.05;;;;;;;16.73;65.20;100603.09;5065883;28;20053;-72
2023/07/25 00:24:36;;;;;;;9.93;3.65;;;;;;;16.71;65.23;100597.78;5067819;28;20481;-71
2023/07/25 00:27:01;;;;;;;5.72;3.15;;;;;;;16.69;65.42;100600.03;5055131;28;20033;-71
2023/07/25 00:29:26;;;;;;;7.68;3.05;;;;;;;16.69;65.38;100594.44;5050555;28;20108;-71
2023/07/25 00:31:52;;;;;;;6.25;3.38;;;;;;;16.68;65.56;100596.41;5050592;28;20033;-72
2023/07/25 00:34:17;;;;;;;8.82;3.33;;;;;;;16.62;65.45;100586.41;5059806;28;20095;-72
2023/07/25 00:36:42;;;;;;;4.65;3.28;;;;;;;16.60;65.79;100590.66;5061003;28;20056;-72
2023/07/25 00:39:08;;;;;;;7.22;3.20;;;;;;;16.63;65.61;100587.25;5056591;28;20035;-72
2023/07/25 00:41:33;;;;;;;6.93;3.55;;;;;;;16.60;65.37;100601.84;5056386;28;20032;-71
2023/07/25 00:43:58;;;;;;;7.30;3.25;;;;;;;16.59;65.51;100597.38;5059246;28;20075;-71
2023/07/25 00:46:24;;;;;;;7.90;3.50;;;;;;;16.50;65.78;100593.56;5054253;28;20028;-71
2023/07/25 00:48:50;;;;;;;6.13;3.67;;;;;;;16.51;65.97;100596.09;5068285;28;20485;-72
2023/07/25 00:51:15;;;;;;;12.68;3.38;;;;;;;16.49;65.78;100597.50;5052465;28;20039;-72
2023/07/25 00:53:41;;;;;;;6.93;3.13;;;;;;;16.46;65.82;100598.94;5052213;28;20029;-72
2023/07/25 00:56:08;;;;;;;6.45;3.38;;;;;;;16.43;65.98;100591.97;5057102;28;20445;-71
2023/07/25 00:58:33;;;;;;;9.32;3.25;;;;;;;16.44;65.88;100595.59;5069561;28;20360;-72
2023/07/25 01:01:06;;;;;;;6.75;3.13;;;;;;;16.42;66.05;100598.69;5051760;28;20120;-72
2023/07/25 01:03:34;;;;;;;7.32;3.30;;;;;;;16.38;66.05;100594.81;5053989;28;20029;-71
2023/07/25 01:06:04;;;;;;;8.85;3.70;;;;;;;16.35;65.90;100592.63;5070678;28;20120;-72
2023/07/25 01:08:29;;;;;;;6.20;3.80;;;;;;;16.34;66.24;100584.50;5050545;28;20115;-72
2023/07/25 01:10:55;;;;;;;5.93;3.38;;;;;;;16.35;66.42;100587.03;5050332;28;20025;-72
2023/07/25 01:13:21;;;;;;;6.32;3.40;;;;;;;16.27;66.55;100587.69;5053571;28;20040;-71
2023/07/25 01:15:48;;;;;;;8.80;3.42;;;;;;;16.23;66.76;100582.97;5056362;28;20039;-71
2023/07/25 01:18:14;;;;;;;7.03;3.33;;;;;;;16.25;66.85;100586.31;5064869;28;20025;-71
2023/07/25 01:20:40;;;;;;;5.35;3.35;;;;;;;16.22;66.52;100584.09;5050749;28;20059;-71
2023/07/25 01:23:07;;;;;;;7.90;3.85;;;;;;;16.18;66.50;100586.66;5050015;28;20485;-71
2023/07/25 01:25:32;;;;;;;5.72;3.33;;;;;;;16.20;66.71;100584.41;5055535;28;20031;-71
2023/07/25 01:27:57;;;;;;;6.45;3.50;;;;;;;16.19;66.69;100588.31;5070546;28;20029;-71
2023/07/25 01:30:23;;;;;;;5.20;3.40;;;;;;;16.24;66.45;100588.28;5065386;28;20039;-72
2023/07/25 01:32:48;;;;;;;9.77;3.72;;;;;;;16.20;66.70;100584.41;5063647;28;20063;-72
2023/07/25 01:35:13;;;;;;;6.25;3.58;;;;;;;16.18;66.56;100583.84;5065416;28;20423;-72
2023/07/25 01:37:38;;;;;;;6.60;3.42;;;;;;;16.19;66.48;100574.31;5052981;28;20040;-72
2023/07/25 01:40:04;;;;;;;5.78;3.78;;;;;;;16.20;66.62;100579.63;5051273;28;20091;-72
2023/07/25 01:42:31;;;;;;;9.73;4.00;;;;;;;16.14;66.77;100579.97;5054199;28;20029;-72
2023/07/25 01:44:56;;;;;;;4.82;3.58;;;;;;;16.15;66.54;100571.31;5070036;28;20024;-72
2023/07/25 01:47:25;;;;;;;6.60;3.83;;;;;;;16.12;66.91;100569.09;5066730;28;20476;-72
2023/07/25 01:49:54;;;;;;;8.93;3.83;;;;;;;16.09;66.80;100564.06;5060502;28;20025;-72
2023/07/25 01:52:19;;;;;;;6.85;3.65;;;;;;;16.13;66.75;100567.13;5059044;28;20020;-72
2023/07/25 01:54:46;;;;;;;6.53;3.80;;;;;;;16.08;66.83;100564.38;5074031;28;20025;-71
2023/07/25 01:57:12;;;;;;;6.45;3.78;;;;;;;16.08;66.97;100575.59;5074175;28;20025;-71
2023/07/25 01:59:37;;;;;;;7.57;3.38;;;;;;;16.05;66.96;100564.97;5053535;28;20075;-72
2023/07/25 02:02:02;;;;;;;5.72;3.58;;;;;;;16.02;66.69;100566.38;5069573;28;20044;-72
2023/07/25 02:04:28;;;;;;;7.90;4.10;;;;;;;16.02;66.81;100559.97;5074407;28;20512;-72
2023/07/25 02:06:53;;;;;;;5.30;3.80;;;;;;;16.02;66.81;100557.16;5072635;28;20361;-71
2023/07/25 02:09:18;;;;;;;5.85;3.78;;;;;;;15.97;67.18;100558.06;5056844;28;20106;-72
2023/07/25 02:11:43;;;;;;;7.82;3.92;;;;;;;15.97;67.00;100552.47;5053871;28;20051;-71
2023/07/25 02:14:09;;;;;;;6.07;3.60;;;;;;;15.90;67.14;100557.56;5053060;28;20112;-71
2023/07/25 02:16:36;;;;;;;7.38;4.20;;;;;;;15.92;66.84;100558.94;5054076;28;20045;-72
2023/07/25 02:19:02;;;;;;;7.32;4.20;;;;;;;15.86;66.86;100550.91;5058540;28;20101;-72
2023/07/25 02:21:28;;;;;;;7.60;3.70;;;;;;;15.84;66.96;100551.19;5071493;28;20036;-72
2023/07/25 02:23:53;;;;;;;5.63;3.80;;;;;;;15.84;66.81;100565.19;5053689;28;20028;-72
2023/07/25 02:26:19;;;;;;;6.07;3.70;;;;;;;15.83;66.96;100560.69;5067657;28;20808;-71
2023/07/25 02:28:44;;;;;;;6.15;4.00;;;;;;;15.81;67.29;100557.38;5063375;28;20077;-71
2023/07/25 02:31:09;;;;;;;6.05;3.70;;;;;;;15.79;67.19;100548.44;5072971;28;20043;-71
2023/07/25 02:33:35;;;;;;;6.25;3.92;;;;;;;15.78;67.47;100551.53;5068031;28;20103;-71
2023/07/25 02:36:00;;;;;;;6.00;3.90;;;;;;;15.72;67.42;100559.16;5052905;28;20439;-71
2023/07/25 02:38:25;;;;;;;5.10;3.85;;;;;;;15.73;67.54;100551.59;5053237;28;20048;-71
2023/07/25 02:40:51;;;;;;;6.05;4.05;;;;;;;15.70;67.46;100551.03;5052678;28;20067;-71
2023/07/25 02:43:16;;;;;;;6.57;4.20;;;;;;;15.68;67.42;100550.53;5068624;28;20029;-71
2023/07/25 02:45:41;;;;;;;5.32;3.90;;;;;;;15.70;67.22;100553.00;5072008;28;20055;-71
2023/07/25 02:48:07;;;;;;;7.50;3.97;;;;;;;15.72;67.23;100550.78;5070892;28;20028;-71
2023/07/25 02:50:32;;;;;;;6.50;4.15;;;;;;;15.69;67.41;100556.94;5060185;28;20024;-71
2023/07/25 02:52:57;;;;;;;8.18;4.18;;;;;;;15.69;67.25;100557.78;5054471;28;20037;-71
2023/07/25 02:55:22;;;;;;;7.05;4.70;;;;;;;15.70;67.48;100551.03;5070342;28;20028;-71
2023/07/25 02:57:48;;;;;;;6.78;3.63;;;;;;;15.65;67.49;100561.47;5061260;28;20112;-71
2023/07/25 03:00:14;;;;;;;11.15;4.70;;;;;;;15.65;67.56;100562.28;5053843;28;20060;-71
2023/07/25 03:02:39;;;;;;;7.13;4.18;;;;;;;15.69;67.83;100559.75;5072468;28;20368;-71
2023/07/25 03:05:04;;;;;;;7.07;4.60;;;;;;;15.68;67.85;100558.09;5059124;28;20098;-72
2023/07/25 03:07:30;;;;;;;8.23;4.82;;;;;;;15.68;67.76;100556.13;5052848;28;20039;-72
2023/07/25 03:09:55;;;;;;;8.20;4.32;;;;;;;15.70;68.07;100550.22;5071425;28;20029;-72
2023/07/25 03:12:21;;;;;;;7.07;4.63;;;;;;;15.70;67.95;100556.63;5057042;28;20068;-72
2023/07/25 03:14:46;;;;;;;8.68;4.93;;;;;;;15.69;68.12;100556.94;5056888;28;20039;-71
2023/07/25 03:17:11;;;;;;;9.90;5.10;;;;;;;15.64;68.29;100556.94;5053591;28;20037;-71
2023/07/25 03:19:36;;;;;;;10.85;4.90;;;;;;;15.68;68.00;100552.50;5067162;28;20039;-71
2023/07/25 03:22:02;;;;;;;5.05;4.50;;;;;;;15.68;68.16;100552.50;5071722;28;20540;-72
2023/07/25 03:24:27;;;;;;;10.85;5.18;;;;;;;15.69;68.12;100557.78;5071671;28;20039;-72
2023/07/25 03:26:52;;;;;;;10.00;4.65;;;;;;;15.62;68.40;100545.22;5054320;28;20067;-72
2023/07/25 03:29:18;;;;;;;6.63;5.03;;;;;;;15.62;68.55;100556.41;5063918;28;20021;-72
2023/07/25 03:31:43;;;;;;;6.18;4.65;;;;;;;15.59;68.48;100546.63;5071593;28;20112;-71
2023/07/25 03:34:08;;;;;;;8.20;4.97;;;;;;;15.62;68.42;100546.06;5066124;28;20047;-72
2023/07/25 03:36:33;;;;;;;15.18;5.10;;;;;;;15.63;68.35;100546.88;5052111;28;20116;-72
2023/07/25 03:38:59;;;;;;;8.00;4.78;;;;;;;15.60;68.52;100541.88;5051554;28;20033;-71
2023/07/25 03:41:24;;;;;;;11.60;4.55;;;;;;;15.62;68.20;100542.44;5054561;28;20032;-71
2023/07/25 03:43:49;;;;;;;9.68;4.38;;;;;;;15.61;68.39;100538.81;5058293;28;20107;-71
2023/07/25 03:46:15;;;;;;;10.23;4.88;;;;;;;15.62;68.27;100542.44;5059773;28;20039;-72
2023/07/25 03:48:40;;;;;;;6.35;4.35;;;;;;;15.62;68.43;100548.03;5064475;28;20041;-72
2023/07/25 03:51:05;;;;;;;9.90;4.97;;;;;;;15.60;68.27;100544.66;5051795;28;20025;-71
2023/07/25 03:53:31;;;;;;;5.82;4.32;;;;;;;15.63;68.43;100547.72;5058376;28;20024;-71
2023/07/25 03:55:56;;;;;;;8.18;4.35;;;;;;;15.63;68.54;100544.91;5060004;28;20743;-71
2023/07/25 03:58:21;;;;;;;8.55;4.40;;;;;;;15.61;68.54;100550.00;5071959;28;20048;-71
2023/07/25 04:00:46;;;;;;;10.13;5.03;;;;;;;15.62;68.33;100550.81;5064980;28;20039;-71
2023/07/25 04:03:12;;;;;;;12.25;4.78;;;;;;;15.55;68.42;100556.75;5051568;28;20025;-71
2023/07/25 04:05:37;;;;;;;9.45;4.55;;;;;;;15.55;68.14;100550.31;5053866;28;20484;-71
2023/07/25 04:08:02;;;;;;;7.90;4.80;;;;;;;15.55;68.47;100553.13;5057904;28;20108;-71
2023/07/25 04:10:28;;;;;;;7.68;4.75;;;;;;;15.51;68.59;100550.06;5051235;28;20248;-71
2023/07/25 04:12:53;;;;;;;7.72;4.45;;;;;;;15.57;68.51;100546.13;5050868;28;20032;-71
2023/07/25 04:15:18;;;;;;;9.30;4.93;;;;;;;15.54;68.59;100557.06;5054212;28;20520;-71
2023/07/25 04:17:44;;;;;;;7.45;4.57;;;;;;;15.51;68.68;100552.88;5050427;28;20548;-72
2023/07/25 04:20:09;;;;;;;6.57;4.75;;;;;;;15.53;68.70;100547.00;5050652;28;20025;-71
2023/07/25 04:22:34;;;;;;;9.00;4.95;;;;;;;15.51;68.43;100552.03;5061518;28;20044;-72
2023/07/25 04:25:00;;;;;;;11.90;5.22;;;;;;;15.56;68.55;100554.78;5056614;28;20055;-72
2023/07/25 04:27:25;;;;;;;6.15;4.57;;;;;;;15.51;68.74;100549.25;5059853;28;20032;-71
2023/07/25 04:29:50;;;;;;;7.05;4.80;;;;;;;15.51;68.53;100549.25;5058757;28;20039;-72
2023/07/25 04:32:16;;;;;;;8.70;4.60;;;;;;;15.52;68.74;100548.09;5066762;28;20119;-72
2023/07/25 04:34:41;;;;;;;7.60;4.68;;;;;;;15.52;68.78;100559.28;5066335;28;20032;-71
2023/07/25 04:37:06;;;;;;;5.75;4.30;;;;;;;15.54;68.88;100543.06;5070853;28;20067;-72
2023/07/25 04:39:32;;;;;;;7.47;4.93;;;;;;;15.52;68.33;100554.53;5066413;28;20032;-72
2023/07/25 04:41:57;;;;;;;8.82;4.80;;;;;;;15.50;68.62;100548.41;5069563;28;20403;-72
2023/07/25 04:44:22;;;;;;;8.88;4.85;;;;;;;15.49;68.68;100562.69;5071375;28;20024;-72
2023/07/25 04:46:47;;;;;;;8.27;4.72;;;;;;;15.46;68.63;100562.16;5056486;28;20461;-72
2023/07/25 04:49:13;;;;;;;8.77;4.97;;;;;;;15.47;68.86;100557.38;5050681;28;20027;-72
2023/07/25 04:51:39;;;;;;;10.65;4.68;;;;;;;15.52;68.64;100553.69;5055719;28;20479;-71
2023/07/25 04:54:05;;;;;;;6.18;4.72;;;;;;;15.52;68.70;100556.50;5067463;28;20029;-71
2023/07/25 04:56:30;;;;;;;9.27;5.07;;;;;;;15.55;68.93;100553.13;5067156;28;20023;-71
2023/07/25 04:58:56;;;;;;;8.18;5.10;;;;;;;15.58;68.68;100546.94;5062519;28;20383;-71
2023/07/25 05:01:21;;;;;;;12.65;5.57;;;;;;;15.58;68.72;100547.78;5050716;28;20044;-71
2023/07/25 05:03:46;;;;;;;8.73;5.10;;;;;;;15.62;68.57;100557.25;5058016;28;20052;-72
2023/07/25 05:06:12;;;;;;;7.90;4.97;;;;;;;15.57;69.10;100543.31;5071073;28;20060;-72
2023/07/25 05:08:37;;;;;;;10.52;4.97;;;;;;;15.55;69.30;100555.91;5067827;28;20029;-72
2023/07/25 05:11:02;;;;;;;9.52;5.35;;;;;;;15.58;69.25;100555.34;5070782;28;20524;-72
2023/07/25 05:13:28;;;;;;;7.60;4.88;;;;;;;15.59;69.09;100559.78;5067810;28;20417;-72
2023/07/25 05:15:53;;;;;;;8.80;4.95;;;;;;;15.61;68.93;100560.34;5069468;28;20131;-72
2023/07/25 05:18:18;;;;;;;10.02;4.68;;;;;;;15.58;68.95;100560.94;5063184;28;20035;-72
2023/07/25 05:20:44;;;;;;;11.43;4.85;;;;;;;15.59;68.71;100562.59;5070443;28;20024;-71
2023/07/25 05:23:09;;;;;;;12.10;4.82;;;;;;;15.56;69.12;100563.19;5074416;28;20033;-71
2023/07/25 05:25:35;;;;;;;8.60;4.25;;;;;;;15.58;68.89;100560.94;5064017;28;20052;-71
2023/07/25 05:28:00;;;;;;;9.73;4.15;;;;;;;15.61;68.93;100563.16;5053675;28;20040;-72
2023/07/25 05:30:26;;;;;;;9.75;4.50;;;;;;;15.64;69.21;100559.75;5072871;28;20032;-72
2023/07/25 05:32:51;;;;;;;10.15;4.55;;;;;;;15.63;69.03;100570.09;5074258;28;20027;-72
2023/07/25 05:35:16;;;;;;;11.90;4.63;;;;;;;15.65;69.02;100567.88;5070276;28;20035;-72
2023/07/25 05:37:42;;;;;;;8.48;4.32;;;;;;;15.63;68.89;100570.09;5059525;28;20025;-72
2023/07/25 05:40:07;;;;;;;9.32;4.50;;;;;;;15.61;69.17;100572.38;5054207;28;20021;-72
2023/07/25 05:42:33;;;;;;;15.43;4.78;;;;;;;15.67;69.08;100564.78;5054661;28;20021;-71
2023/07/25 05:44:59;;;;;;;10.40;4.20;;;;;;;15.62;69.28;100573.19;5053706;28;20029;-72
2023/07/25 05:47:25;;;;;;;5.53;3.67;;;;;;;15.68;69.51;100586.06;5062263;28;20755;-71
2023/07/25 05:49:51;;;;;;;6.13;3.70;;;;;;;15.70;69.51;100581.00;5053015;28;20037;-72
2023/07/25 05:52:16;;;;;;;8.98;3.80;;;;;;;15.78;69.37;100579.53;5070319;28;20107;-72
2023/07/25 05:54:43;;;;;;;7.68;3.53;;;;;;;15.75;69.78;100586.53;5059898;28;20481;-72
2023/07/25 05:57:08;;;;;;;9.45;3.60;;;;;;;15.79;69.50;100579.22;5055940;28;20029;-72
2023/07/25 05:59:33;;;;;;;9.40;4.22;;;;;;;15.81;69.39;100576.97;5053401;28;20435;-72
2023/07/25 06:01:59;;;;;;;9.70;3.90;;;;;;;15.86;69.34;100582.50;5053847;28;20044;-72
2023/07/25 06:04:24;;;;;;;7.30;3.33;;;;;;;15.89;69.04;100572.69;5054363;28;20021;-72
2023/07/25 06:06:50;;;;;;;9.85;3.50;;;;;;;15.91;68.83;100582.44;5068054;28;20036;-72
2023/07/25 06:09:15;;;;;;;10.65;3.63;;;;;;;15.92;68.78;100572.94;5054643;28;20143;-71
2023/07/25 06:11:40;;;;;;;11.15;3.97;;;;;;;15.89;69.02;100578.28;5073962;28;20376;-71
2023/07/25 06:14:06;;;;;;;9.52;3.63;;;;;;;15.98;68.87;100570.91;5073401;28;20115;-71
2023/07/25 06:16:31;;;;;;;11.35;3.20;;;;;;;15.95;68.65;100577.97;5069311;28;20039;-72
2023/07/25 06:18:56;;;;;;;7.50;2.72;;;;;;;16.01;68.57;100572.28;5071505;28;20111;-72
2023/07/25 06:21:22;;;;;;;8.45;3.10;;;;;;;16.04;68.16;100577.31;5052570;28;20067;-73
2023/07/25 06:23:47;;;;;;;7.03;2.63;;;;;;;16.03;67.75;100579.25;5054673;28;20108;-72
2023/07/25 06:26:12;;;;;;;9.32;3.28;;;;;;;16.08;68.16;100578.38;5059803;28;20028;-71
2023/07/25 06:28:38;;;;;;;8.35;3.58;;;;;;;16.12;68.06;100583.09;5068047;28;20020;-71
2023/07/25 06:31:04;;;;;;;7.32;3.08;;;;;;;16.13;68.18;100586.72;5066546;28;20028;-71
2023/07/25 06:33:29;;;;;;;9.50;3.78;;;;;;;16.22;68.00;100593.31;5064767;28;20044;-71
2023/07/25 06:35:54;;;;;;;8.85;3.67;;;;;;;16.21;68.22;100586.06;5070852;28;20035;-72
2023/07/25 06:38:20;;;;;;;8.38;3.85;;;;;;;16.23;68.07;100582.97;5069692;28;20048;-72
2023/07/25 06:40:45;;;;;;;7.57;3.75;;;;;;;16.23;68.32;100589.41;5070024;28;20534;-72
2023/07/25 06:43:10;;;;;;;10.98;4.10;;;;;;;16.32;68.81;100587.63;5063098;28;20063;-74
2023/07/25 06:45:36;;;;;;;8.98;4.07;;;;;;;16.38;68.64;100597.63;5062142;28;20051;-74
2023/07/25 06:48:01;;;;;;;7.35;3.83;;;;;;;16.40;68.38;100591.72;5068730;28;20036;-73
2023/07/25 06:50:26;;;;;;;9.38;4.45;;;;;;;16.48;67.92;100585.47;5064533;28;20036;-74
2023/07/25 06:52:52;;;;;;;9.80;3.97;;;;;;;16.54;67.68;100584.25;5060059;28;20044;-75
2023/07/25 06:55:19;;;;;;;8.02;3.92;;;;;;;16.57;67.85;100582.84;5070589;28;20025;-74
2023/07/25 06:57:45;;;;;;;8.95;3.33;;;;;;;16.66;68.25;100581.88;5067361;28;20028;-75
2023/07/25 07:00:11;;;;;;;8.77;3.25;;;;;;;16.83;67.75;100587.00;5062957;28;20043;-73
2023/07/25 07:02:36;;;;;;;9.50;3.22;;;;;;;16.89;67.21;100585.78;5055112;28;20033;-74
2023/07/25 07:05:01;;;;;;;6.88;2.78;;;;;;;16.91;66.62;100586.31;5060456;28;20028;-77
2023/07/25 07:07:27;;;;;;;7.55;2.80;;;;;;;16.92;66.77;100581.53;5065746;28;20503;-78
2023/07/25 07:09:52;;;;;;;7.30;3.03;;;;;;;16.89;66.28;100596.16;5053958;28;20042;-70
2023/07/25 07:12:17;;;;;;;8.85;3.10;;;;;;;16.93;66.42;100598.06;5061224;28;20025;-70
2023/07/25 07:14:43;;;;;;;8.50;2.97;;;;;;;17.01;67.04;100599.34;5056281;28;20029;-72
2023/07/25 07:17:08;;;;;;;8.73;2.67;;;;;;;17.02;65.25;100606.66;5055530;28;20040;-73
2023/07/25 07:19:33;;;;;;;6.88;2.60;;;;;;;17.03;65.14;100607.47;5051054;28;20538;-73
2023/07/25 07:21:58;;;;;;;7.15;2.45;;;;;;;16.99;64.94;100612.03;5059785;28;20052;-72
2023/07/25 07:24:24;;;;;;;7.00;2.25;;;;;;;16.92;64.42;100610.41;5056651;28;20114;-73
2023/07/25 07:26:49;;;;;;;8.07;2.20;;;;;;;16.92;64.00;100609.59;5058405;28;20024;-74
2023/07/25 07:29:14;;;;;;;9.48;2.80;;;;;;;16.93;64.47;100611.25;5061283;28;20040;-74
2023/07/25 07:31:40;;;;;;;7.50;2.60;;;;;;;16.90;64.72;100598.69;5063740;28;20094;-75
2023/07/25 07:34:14;;;;;;;7.97;2.15;;;;;;;16.89;64.55;100611.00;5064132;28;20073;-74
2023/07/25 07:36:40;;;;;;;10.70;2.40;;;;;;;16.88;64.28;100609.34;5069894;28;20036;-72
2023/07/25 07:39:05;;;;;;;6.68;2.20;;;;;;;16.91;64.35;100610.72;5061531;28;20043;-75
2023/07/25 07:41:31;;;;;;;5.97;1.85;;;;;;;16.90;64.13;100601.47;5066238;28;20558;-75
2023/07/25 07:43:56;;;;;;;8.00;2.08;;;;;;;16.87;64.33;100610.50;5066977;28;20029;-72
2023/07/25 07:46:21;;;;;;;7.53;2.03;;;;;;;16.86;63.91;100620.03;5055965;28;20107;-66
2023/07/25 07:48:47;;;;;;;9.30;2.20;;;;;;;16.81;64.00;100617.28;5069699;28;20123;-71
2023/07/25 07:51:12;;;;;;;8.68;2.20;;;;;;;16.78;64.34;100629.13;5058859;28;20036;-71
2023/07/25 07:53:38;;;;;;;5.97;2.03;;;;;;;16.79;64.04;100630.78;5052606;28;20032;-70
2023/07/25 07:56:10;;;;;;;4.95;1.88;;;;;;;16.74;63.76;100628.06;5051223;28;20032;-70
2023/07/25 07:58:36;;;;;;;6.88;2.03;;;;;;;16.76;63.61;100624.94;5051260;28;20040;-75
2023/07/25 08:01:01;;;;;;;6.30;2.03;;;;;;;16.79;63.51;100625.19;5050129;28;20028;-76
2023/07/25 08:03:27;;;;;;;6.47;1.60;;;;;;;16.78;63.22;100631.94;5051382;28;20064;-74
2023/07/25 08:05:58;;;;;;;7.57;1.90;;;;;;;16.79;62.75;100639.19;5064797;28;20025;-74
2023/07/25 08:08:23;;;;;;;5.63;1.63;;;;;;;16.76;62.49;100634.19;5070949;28;20040;-75
2023/07/25 08:10:49;;;;;;;8.30;1.92;;;;;;;16.79;62.61;100636.38;5070958;28;20040;-75
2023/07/25 08:13:14;;;;;;;5.28;1.50;;;;;;;16.78;61.57;100645.94;5058508;28;20028;-75
2023/07/25 08:15:39;;;;;;;7.18;1.77;;;;;;;16.80;62.29;100645.63;5064075;28;20024;-74
2023/07/25 08:18:05;;;;;;;6.25;1.70;;;;;;;16.86;61.70;100636.88;5061504;28;20032;-76
2023/07/25 08:20:30;;;;;;;5.45;1.58;;;;;;;16.92;61.97;100646.84;5061301;28;20068;-74
2023/07/25 08:22:55;;;;;;;6.57;1.77;;;;;;;16.98;61.38;100635.56;5068456;28;20029;-72
2023/07/25 08:25:21;;;;;;;4.22;1.42;;;;;;;17.02;60.28;100642.25;5058044;28;20039;-72
2023/07/25 08:27:46;;;;;;;6.70;1.95;;;;;;;17.06;60.60;100646.97;5073253;28;20039;-70
2023/07/25 08:30:11;;;;;;;5.68;1.60;;;;;;;17.08;59.81;100644.69;5068737;28;20028;-73
2023/07/25 08:32:37;;;;;;;4.72;1.23;;;;;;;17.11;60.02;100640.44;5076030;28;20031;-72
2023/07/25 08:35:02;;;;;;;4.93;1.35;;;;;;;17.17;58.91;100650.44;5080185;28;20016;-73
2023/07/25 08:37:27;;;;;;;8.95;1.50;;;;;;;17.26;59.56;100653.41;5081000;28;20360;-75
2023/07/25 08:39:53;;;;;;;7.22;1.50;;;;;;;17.37;59.54;100650.16;5069977;28;20029;-74
2023/07/25 08:42:23;;;;;;;6.93;1.60;;;;;;;17.51;58.46;100660.63;5083322;28;20491;-76
2023/07/25 08:44:52;;;;;;;6.53;1.45;;;;;;;17.63;58.25;100655.38;5072384;28;20024;-74
2023/07/25 08:47:22;;;;;;;3.58;1.30;;;;;;;17.81;58.29;100662.13;5084392;28;20039;-74
2023/07/25 08:49:53;;;;;;;5.65;1.50;;;;;;;17.97;57.99;100648.66;5065279;28;20032;-74
2023/07/25 08:52:20;;;;;;;4.28;1.48;;;;;;;18.04;57.41;100657.53;5072936;28;20043;-74
2023/07/25 08:54:48;;;;;;;4.63;1.50;;;;;;;18.18;57.50;100669.63;5084465;28;20069;-74
2023/07/25 08:57:16;;;;;;;5.40;1.50;;;;;;;18.26;56.83;100670.88;5052053;28;20071;-74
2023/07/25 08:59:42;;;;;;;4.18;1.55;;;;;;;18.27;55.84;100664.13;5063180;28;20067;-74
2023/07/25 09:02:09;;;;;;;5.47;1.40;;;;;;;18.33;56.46;100668.50;5072345;28;20036;-72
2023/07/25 09:04:35;;;;;;;6.07;1.52;;;;;;;18.43;56.35;100673.09;5069951;28;20049;-76
2023/07/25 09:07:00;;;;;;;8.65;1.75;;;;;;;18.49;55.21;100671.84;5073992;28;20020;-74
2023/07/25 09:09:25;;;;;;;4.43;1.35;;;;;;;18.59;53.70;100664.06;5072163;28;20035;-73
2023/07/25 09:11:51;;;;;;;3.47;1.17;;;;;;;18.65;54.23;100664.78;5065139;28;20373;-73
2023/07/25 09:14:17;;;;;;;6.85;1.73;;;;;;;18.71;54.29;100669.19;5065441;28;20059;-73
2023/07/25 09:16:42;;;;;;;6.38;1.50;;;;;;;18.76;54.42;100666.28;5079919;28;20048;-73
2023/07/25 09:19:08;;;;;;;4.88;1.70;;;;;;;18.84;54.13;100668.34;5068354;28;20024;-73
2023/07/25 09:21:49;;;;;;;8.18;1.80;;;;;;;18.86;54.26;100671.69;5071546;28;20042;-73
2023/07/25 09:24:14;;;;;;;6.50;1.27;;;;;;;18.95;53.26;100666.16;5058861;28;20048;-73
2023/07/25 09:26:41;;;;;;;5.35;1.55;;;;;;;19.05;53.24;100665.94;5063860;28;20476;-73
2023/07/25 09:29:07;;;;;;;4.65;1.52;;;;;;;19.16;53.16;100669.34;5062179;28;20103;-73
2023/07/25 09:31:42;;;;;;;6.20;1.60;;;;;;;19.29;53.47;100660.03;5074197;28;20423;-73
2023/07/25 09:34:08;;;;;;;5.32;1.45;;;;;;;19.34;51.15;100664.75;5089852;28;20024;-73
2023/07/25 09:36:33;;;;;;;5.40;1.45;;;;;;;19.43;51.86;100668.47;5089537;28;20164;-73
2023/07/25 09:38:59;;;;;;;5.50;1.40;;;;;;;19.49;51.75;100670.03;5088837;28;20058;-73
2023/07/25 09:41:24;;;;;;;4.15;1.48;;;;;;;19.40;51.52;100671.91;5090175;28;20028;-73
2023/07/25 09:43:51;;;;;;;5.57;1.48;;;;;;;19.33;51.37;100679.94;5089553;28;20035;-73
2023/07/25 09:46:17;;;;;;;4.60;1.10;;;;;;;19.32;51.25;100679.13;5078099;28;20113;-73
2023/07/25 09:48:47;;;;;;;3.28;1.17;;;;;;;19.42;51.73;100674.44;5073305;28;20129;-73
2023/07/25 09:51:14;;;;;;;5.68;1.60;;;;;;;19.45;52.20;100676.59;5089601;28;20051;-73
2023/07/25 09:53:50;;;;;;;7.13;1.60;;;;;;;19.53;52.86;100682.31;5089716;28;20028;-73
2023/07/25 09:56:15;;;;;;;8.80;1.83;;;;;;;19.61;51.65;100677.91;5089784;28;20376;-73
2023/07/25 09:58:41;;;;;;;5.20;1.33;;;;;;;19.68;52.27;100675.50;5086912;28;20028;-74
2023/07/25 10:01:09;;;;;;;3.45;1.20;;;;;;;19.61;51.34;100678.78;5089437;28;20035;-73
2023/07/25 10:03:35;;;;;;;9.13;1.60;;;;;;;19.52;50.60;100682.63;5089748;28;20107;-72
2023/07/25 10:06:02;;;;;;;4.10;1.33;;;;;;;19.40;51.54;100685.97;5065812;28;20864;-72
2023/07/25 10:08:27;;;;;;;5.45;1.38;;;;;;;19.24;50.97;100685.50;5069459;28;20036;-73
2023/07/25 10:10:56;;;;;;;3.53;1.10;;;;;;;19.15;51.79;100678.13;5072677;28;20384;-73
2023/07/25 10:13:22;;;;;;;6.78;1.60;;;;;;;19.04;51.76;100677.50;5071378;28;20075;-73
2023/07/25 10:15:49;;;;;;;5.90;1.23;;;;;;;18.97;52.14;100688.34;5073173;28;20020;-72
2023/07/25 10:18:21;;;;;;;3.00;1.10;;;;;;;18.95;52.51;100682.22;5070001;28;20507;-73
2023/07/25 10:20:48;;;;;;;4.47;1.20;;;;;;;18.98;53.35;100685.25;5071018;28;20111;-73
2023/07/25 10:23:14;;;;;;;6.63;1.33;;;;;;;19.10;53.03;100681.88;5057690;28;20032;-73
2023/07/25 10:25:40;;;;;;;8.15;1.45;;;;;;;19.24;52.02;100684.66;5063657;28;20060;-73
2023/07/25 10:28:06;;;;;;;3.22;1.00;;;;;;;19.29;51.14;100674.13;5092529;28;20124;-74
2023/07/25 10:30:39;;;;;;;4.97;1.02;;;;;;;19.35;50.03;100677.66;5093069;28;20115;-75
2023/07/25 10:33:07;;;;;;;4.72;1.30;;;;;;;19.47;48.81;100677.13;5078899;28;20026;-75
2023/07/25 10:35:52;;;;;;;8.98;1.70;;;;;;;19.58;50.72;100675.72;5081747;28;20025;-74
2023/07/25 10:38:20;;;;;;;6.25;1.35;;;;;;;19.67;50.57;100673.84;5060178;28;20174;-69
2023/07/25 10:41:11;;;;;;;4.10;1.30;;;;;;;19.70;51.09;100667.56;5059304;28;20101;-70
2023/07/25 10:43:45;;;;;;;4.72;1.23;;;;;;;19.66;50.55;100677.81;5063078;28;20444;-69
2023/07/25 10:46:16;;;;;;;3.28;1.20;;;;;;;19.49;50.27;100677.63;5069092;28;20028;-68
2023/07/25 10:48:49;;;;;;;5.28;1.33;;;;;;;19.42;50.58;100680.06;5071041;28;20037;-69
2023/07/25 10:51:17;;;;;;;2.92;1.20;;;;;;;19.46;50.67;100681.09;5071360;28;20127;-67
2023/07/25 10:54:12;;;;;;;7.20;1.70;;;;;;;19.58;51.64;100676.56;5071403;28;20020;-67
2023/07/25 10:56:38;;;;;;;2.17;1.20;;;;;;;19.68;50.61;100675.50;5072889;28;20069;-70
2023/07/25 10:59:11;;;;;;;5.25;1.40;;;;;;;19.75;49.31;100675.06;5059326;28;20052;-68
2023/07/25 11:01:42;;;;;;;3.72;1.42;;;;;;;19.85;49.32;100678.47;5058501;28;20032;-69
2023/07/25 11:04:24;;;;;;;3.75;1.30;;;;;;;19.83;49.36;100666.66;5072278;28;20097;-70
2023/07/25 11:06:51;;;;;;;2.20;1.17;;;;;;;19.90;49.02;100671.03;5071346;28;20100;-65
2023/07/25 11:09:17;;;;;;;3.08;1.20;;;;;;;20.05;48.57;100671.47;5066280;28;20025;-67
2023/07/25 11:11:45;;;;;;;5.25;1.20;;;;;;;20.09;49.04;100664.03;5062735;28;20021;-69
2023/07/25 11:14:12;;;;;;;3.67;1.08;;;;;;;20.02;48.82;100674.09;5065515;28;20026;-68
2023/07/25 11:16:39;;;;;;;2.80;1.13;;;;;;;19.85;49.36;100677.63;5067096;28;20052;-70
2023/07/25 11:19:05;;;;;;;4.28;1.38;;;;;;;19.72;49.26;100670.88;5069160;28;20040;-70